createdAt,value
2017-07-12T00:00:34.417Z,1000.24
2017-07-12T00:01:34.397Z,1000.24
2017-07-12T00:02:34.376Z,1000.19
2017-07-12T00:03:34.356Z,1000.16
2017-07-12T00:04:34.339Z,1000.18
2017-07-12T00:05:34.317Z,1000.15
2017-07-12T00:06:34.295Z,1000.13
2017-07-12T00:07:34.275Z,1000.09
2017-07-12T00:08:34.256Z,1000.1
2017-07-12T00:09:34.234Z,1000.09
2017-07-12T00:10:34.214Z,1000.03
2017-07-12T00:11:34.194Z,1000.03
2017-07-12T00:12:34.175Z,1000.04
2017-07-12T00:13:34.155Z,1000.06
2017-07-12T00:14:34.232Z,1000.04
2017-07-12T00:15:34.114Z,1000.04
2017-07-12T00:16:34.095Z,1000.03
2017-07-12T00:17:34.073Z,1000.03
2017-07-12T00:18:34.053Z,1000.06
2017-07-12T00:19:34.034Z,1000.1
2017-07-12T00:20:34.012Z,1000.09
2017-07-12T00:21:33.992Z,1000.1
2017-07-12T00:22:33.972Z,1000.07
2017-07-12T00:23:33.952Z,1000.04
2017-07-12T00:24:33.931Z,1000.06
2017-07-12T00:25:33.911Z,1000.05
2017-07-12T00:26:33.891Z,1000.06
2017-07-12T00:27:33.872Z,1000.06
2017-07-12T00:28:33.854Z,1000.05
2017-07-12T00:29:33.831Z,1000.09
2017-07-12T00:30:33.811Z,1000.07
2017-07-12T00:31:33.790Z,1000.04
2017-07-12T00:32:33.770Z,1000.03
2017-07-12T00:33:33.750Z,1000
2017-07-12T00:34:33.731Z,1000.02
2017-07-12T00:35:33.710Z,1000.03
2017-07-12T00:36:33.689Z,1000.07
2017-07-12T00:37:33.670Z,1000.07
2017-07-12T00:38:33.665Z,1000.04
2017-07-12T00:39:33.631Z,1000.04
2017-07-12T00:40:33.609Z,999.98
2017-07-12T00:41:33.589Z,999.96
2017-07-12T00:42:33.568Z,999.98
2017-07-12T00:43:33.549Z,1000.01
2017-07-12T00:44:33.528Z,999.96
2017-07-12T00:45:33.508Z,1000.03
2017-07-12T00:46:33.488Z,999.96
2017-07-12T00:47:33.469Z,999.99
2017-07-12T00:48:33.448Z,999.98
2017-07-12T00:49:33.428Z,999.95
2017-07-12T00:50:33.407Z,999.93
2017-07-12T00:51:33.440Z,999.92
2017-07-12T00:52:33.367Z,999.88
2017-07-12T00:53:33.346Z,999.85
2017-07-12T00:54:33.327Z,999.86
2017-07-12T00:55:33.307Z,999.84
2017-07-12T00:56:33.288Z,999.85
2017-07-12T00:57:33.266Z,999.84
2017-07-12T00:58:33.246Z,999.79
2017-07-12T00:59:33.227Z,999.81
2017-07-12T01:00:33.206Z,999.79
2017-07-12T01:01:33.186Z,999.77
2017-07-12T01:02:33.166Z,999.73
2017-07-12T01:03:33.146Z,999.72
2017-07-12T01:04:33.125Z,999.69
2017-07-12T01:05:33.110Z,999.64
2017-07-12T01:06:33.085Z,999.65
2017-07-12T01:07:33.067Z,999.64
2017-07-12T01:08:33.045Z,999.6
2017-07-12T01:09:33.025Z,999.61
2017-07-12T01:10:33.010Z,999.61
2017-07-12T01:11:32.988Z,999.58
2017-07-12T01:12:32.966Z,999.6
2017-07-12T01:13:32.946Z,999.64
2017-07-12T01:14:32.926Z,999.62
2017-07-12T01:15:32.906Z,999.61
2017-07-12T01:16:32.887Z,999.63
2017-07-12T01:17:32.865Z,999.58
2017-07-12T01:18:32.845Z,999.66
2017-07-12T01:19:32.825Z,999.63
2017-07-12T01:20:32.805Z,999.59
2017-07-12T01:21:32.786Z,999.58
2017-07-12T01:22:32.764Z,999.57
2017-07-12T01:23:32.745Z,999.55
2017-07-12T01:24:32.726Z,999.59
2017-07-12T01:25:32.706Z,999.57
2017-07-12T01:26:32.684Z,999.53
2017-07-12T01:27:32.664Z,999.55
2017-07-12T01:28:32.646Z,999.57
2017-07-12T01:29:32.625Z,999.53
2017-07-12T01:30:32.605Z,999.58
2017-07-12T01:31:32.585Z,999.61
2017-07-12T01:32:32.565Z,999.58
2017-07-12T01:33:32.543Z,999.57
2017-07-12T01:34:32.524Z,999.59
2017-07-12T01:35:32.503Z,999.52
2017-07-12T01:36:32.493Z,999.52
2017-07-12T01:37:32.464Z,999.55
2017-07-12T01:38:32.444Z,999.58
2017-07-12T01:39:32.424Z,999.61
2017-07-12T01:40:32.404Z,999.59
2017-07-12T01:41:32.382Z,999.6
2017-07-12T01:42:32.363Z,999.6
2017-07-12T01:43:32.343Z,999.55
2017-07-12T01:44:32.322Z,999.5
2017-07-12T01:45:32.303Z,999.47
2017-07-12T01:46:32.282Z,999.5
2017-07-12T01:47:32.263Z,999.45
2017-07-12T01:48:32.242Z,999.48
2017-07-12T01:49:32.222Z,999.44
2017-07-12T01:50:32.202Z,999.42
2017-07-12T01:51:32.182Z,999.42
2017-07-12T01:52:32.163Z,999.39
2017-07-12T01:53:32.141Z,999.39
2017-07-12T01:54:32.121Z,999.4
2017-07-12T01:55:32.101Z,999.34
2017-07-12T01:56:32.080Z,999.34
2017-07-12T01:57:32.061Z,999.29
2017-07-12T01:58:32.041Z,999.33
2017-07-12T01:59:32.020Z,999.32
2017-07-12T02:00:31.999Z,999.28
2017-07-12T02:01:31.980Z,999.23
2017-07-12T02:02:31.961Z,999.22
2017-07-12T02:03:31.939Z,999.17
2017-07-12T02:04:31.919Z,999.15
2017-07-12T02:05:31.900Z,999.13
2017-07-12T02:06:31.879Z,999.14
2017-07-12T02:07:31.858Z,999.14
2017-07-12T02:08:31.838Z,999.16
2017-07-12T02:09:31.820Z,999.19
2017-07-12T02:10:31.797Z,999.25
2017-07-12T02:11:31.779Z,999.25
2017-07-12T02:12:31.757Z,999.28
2017-07-12T02:13:31.738Z,999.29
2017-07-12T02:14:31.717Z,999.26
2017-07-12T02:15:31.705Z,999.25
2017-07-12T02:16:31.677Z,999.25
2017-07-12T02:17:31.656Z,999.23
2017-07-12T02:18:31.636Z,999.26
2017-07-12T02:19:31.619Z,999.26
2017-07-12T02:20:31.596Z,999.27
2017-07-12T02:21:31.577Z,999.22
2017-07-12T02:22:31.555Z,999.26
2017-07-12T02:23:31.536Z,999.25
2017-07-12T02:24:31.515Z,999.21
2017-07-12T02:25:31.496Z,999.16
2017-07-12T02:26:31.475Z,999.13
2017-07-12T02:27:31.455Z,999.08
2017-07-12T02:28:31.435Z,999.13
2017-07-12T02:29:31.414Z,999.2
2017-07-12T02:30:31.395Z,999.18
2017-07-12T02:31:31.373Z,999.18
2017-07-12T02:32:31.355Z,999.17
2017-07-12T02:33:31.333Z,999.2
2017-07-12T02:34:31.313Z,999.17
2017-07-12T02:35:31.295Z,999.11
2017-07-12T02:36:31.272Z,999.11
2017-07-12T02:37:31.253Z,999.13
2017-07-12T02:38:31.232Z,999.09
2017-07-12T02:39:31.211Z,999.04
2017-07-12T02:40:31.194Z,999.02
2017-07-12T02:41:31.171Z,999.03
2017-07-12T02:42:31.151Z,999.01
2017-07-12T02:43:31.130Z,998.99
2017-07-12T02:44:31.110Z,999
2017-07-12T02:45:31.089Z,998.95
2017-07-12T02:46:31.069Z,998.94
2017-07-12T02:47:31.049Z,998.94
2017-07-12T02:48:31.028Z,998.89
2017-07-12T02:49:31.009Z,998.87
2017-07-12T02:50:30.988Z,998.88
2017-07-12T02:51:30.967Z,998.83
2017-07-12T02:52:30.948Z,998.86
2017-07-12T02:53:30.928Z,998.85
2017-07-12T02:54:30.906Z,998.87
2017-07-12T02:55:30.885Z,998.83
2017-07-12T02:56:30.865Z,998.82
2017-07-12T02:57:30.844Z,998.8
2017-07-12T02:58:30.824Z,998.82
2017-07-12T02:59:30.853Z,998.81
2017-07-12T03:00:30.783Z,998.76
2017-07-12T03:01:30.766Z,998.72
2017-07-12T03:02:30.742Z,998.74
2017-07-12T03:03:30.723Z,998.72
2017-07-12T03:04:30.702Z,998.73
2017-07-12T03:05:30.681Z,998.74
2017-07-12T03:06:30.660Z,998.75
2017-07-12T03:07:30.640Z,998.72
2017-07-12T03:08:30.620Z,998.74
2017-07-12T03:09:30.598Z,998.7
2017-07-12T03:10:30.578Z,998.7
2017-07-12T03:11:30.557Z,998.67
2017-07-12T03:12:30.536Z,998.66
2017-07-12T03:13:30.516Z,998.64
2017-07-12T03:14:30.497Z,998.64
2017-07-12T03:15:30.476Z,998.65
2017-07-12T03:16:30.454Z,998.65
2017-07-12T03:17:30.434Z,998.66
2017-07-12T03:18:30.414Z,998.64
2017-07-12T03:19:30.392Z,998.64
2017-07-12T03:20:30.372Z,998.6
2017-07-12T03:21:30.352Z,998.58
2017-07-12T03:22:30.331Z,998.54
2017-07-12T03:23:30.310Z,998.53
2017-07-12T03:24:30.352Z,998.55
2017-07-12T03:25:30.270Z,998.5
2017-07-12T03:26:30.249Z,998.52
2017-07-12T03:27:30.229Z,998.48
2017-07-12T03:28:30.209Z,998.47
2017-07-12T03:29:30.188Z,998.5
2017-07-12T03:30:30.168Z,998.47
2017-07-12T03:31:30.146Z,998.45
2017-07-12T03:32:30.126Z,998.41
2017-07-12T03:33:30.105Z,998.41
2017-07-12T03:34:30.084Z,998.35
2017-07-12T03:35:30.063Z,998.33
2017-07-12T03:36:30.044Z,998.34
2017-07-12T03:37:30.023Z,998.34
2017-07-12T03:38:30.001Z,998.32
2017-07-12T03:39:29.982Z,998.36
2017-07-12T03:40:29.961Z,998.37
2017-07-12T03:41:29.940Z,998.36
2017-07-12T03:42:29.919Z,998.39
2017-07-12T03:43:29.899Z,998.33
2017-07-12T03:44:29.880Z,998.37
2017-07-12T03:45:29.858Z,998.36
2017-07-12T03:46:29.840Z,998.31
2017-07-12T03:47:29.817Z,998.3
2017-07-12T03:48:29.797Z,998.3
2017-07-12T03:49:29.779Z,998.3
2017-07-12T03:50:29.756Z,998.26
2017-07-12T03:51:29.735Z,998.21
2017-07-12T03:52:29.714Z,998.26
2017-07-12T03:53:29.693Z,998.26
2017-07-12T03:54:29.673Z,998.23
2017-07-12T03:55:29.653Z,998.22
2017-07-12T03:56:29.631Z,998.27
2017-07-12T03:57:29.611Z,998.25
2017-07-12T03:58:29.591Z,998.28
2017-07-12T03:59:29.626Z,998.29
2017-07-12T04:00:29.550Z,998.3
2017-07-12T04:01:29.529Z,998.3
2017-07-12T04:02:29.509Z,998.3
2017-07-12T04:03:29.488Z,998.25
2017-07-12T04:04:29.468Z,998.29
2017-07-12T04:05:29.448Z,998.23
2017-07-12T04:06:29.429Z,998.32
2017-07-12T04:07:29.406Z,998.3
2017-07-12T04:08:29.386Z,998.27
2017-07-12T04:09:29.367Z,998.24
2017-07-12T04:10:29.346Z,998.24
2017-07-12T04:11:29.325Z,998.15
2017-07-12T04:12:29.305Z,998.12
2017-07-12T04:13:29.285Z,998.08
2017-07-12T04:14:29.264Z,998.04
2017-07-12T04:15:29.244Z,998.05
2017-07-12T04:16:29.224Z,998.11
2017-07-12T04:17:29.204Z,998.06
2017-07-12T04:18:29.182Z,998.08
2017-07-12T04:19:29.162Z,998.06
2017-07-12T04:20:29.141Z,998.06
2017-07-12T04:21:29.121Z,998.04
2017-07-12T04:22:29.100Z,998.02
2017-07-12T04:23:29.280Z,998.03
2017-07-12T04:24:29.060Z,998.02
2017-07-12T04:25:29.039Z,998.01
2017-07-12T04:26:29.019Z,998.03
2017-07-12T04:27:28.998Z,998.01
2017-07-12T04:28:28.978Z,998
2017-07-12T04:29:28.957Z,997.96
2017-07-12T04:30:28.936Z,997.95
2017-07-12T04:31:28.916Z,997.98
2017-07-12T04:32:28.894Z,997.94
2017-07-12T04:33:28.873Z,997.95
2017-07-12T04:34:28.854Z,997.93
2017-07-12T04:35:28.833Z,997.96
2017-07-12T04:36:28.810Z,997.98
2017-07-12T04:37:28.789Z,997.96
2017-07-12T04:38:28.769Z,997.96
2017-07-12T04:39:28.749Z,997.97
2017-07-12T04:40:28.727Z,997.91
2017-07-12T04:41:28.706Z,997.91
2017-07-12T04:42:28.686Z,997.89
2017-07-12T04:43:28.664Z,997.87
2017-07-12T04:44:28.644Z,997.87
2017-07-12T04:45:28.677Z,997.8
2017-07-12T04:46:28.602Z,997.84
2017-07-12T04:47:28.580Z,997.82
2017-07-12T04:48:28.561Z,997.8
2017-07-12T04:49:28.539Z,997.76
2017-07-12T04:50:28.518Z,997.77
2017-07-12T04:51:28.496Z,997.8
2017-07-12T04:52:28.476Z,997.78
2017-07-12T04:53:28.455Z,997.73
2017-07-12T04:54:28.683Z,997.74
2017-07-12T04:55:28.413Z,997.7
2017-07-12T04:56:28.392Z,997.69
2017-07-12T04:57:28.371Z,997.72
2017-07-12T04:58:28.354Z,997.73
2017-07-12T04:59:28.329Z,997.75
2017-07-12T05:00:28.401Z,997.73
2017-07-12T05:01:28.287Z,997.7
2017-07-12T05:02:28.267Z,997.68
2017-07-12T05:03:28.245Z,997.66
2017-07-12T05:04:28.224Z,997.66
2017-07-12T05:05:28.204Z,997.65
2017-07-12T05:06:28.183Z,997.63
2017-07-12T05:07:28.161Z,997.6
2017-07-12T05:08:28.141Z,997.61
2017-07-12T05:09:28.119Z,997.64
2017-07-12T05:10:28.099Z,997.6
2017-07-12T05:11:28.078Z,997.56
2017-07-12T05:12:28.057Z,997.56
2017-07-12T05:13:28.035Z,997.54
2017-07-12T05:14:28.015Z,997.52
2017-07-12T05:15:27.994Z,997.54
2017-07-12T05:16:27.972Z,997.53
2017-07-12T05:17:27.957Z,997.49
2017-07-12T05:18:27.931Z,997.43
2017-07-12T05:19:27.911Z,997.41
2017-07-12T05:20:27.889Z,997.42
2017-07-12T05:21:27.869Z,997.41
2017-07-12T05:22:27.848Z,997.4
2017-07-12T05:23:27.827Z,997.42
2017-07-12T05:24:27.806Z,997.4
2017-07-12T05:25:27.786Z,997.36
2017-07-12T05:26:27.765Z,997.41
2017-07-12T05:27:27.744Z,997.42
2017-07-12T05:28:27.722Z,997.38
2017-07-12T05:29:27.702Z,997.38
2017-07-12T05:30:27.683Z,997.41
2017-07-12T05:31:27.660Z,997.39
2017-07-12T05:32:27.640Z,997.37
2017-07-12T05:33:27.623Z,997.43
2017-07-12T05:34:27.599Z,997.4
2017-07-12T05:35:27.577Z,997.4
2017-07-12T05:36:27.556Z,997.36
2017-07-12T05:37:27.537Z,997.34
2017-07-12T05:38:27.515Z,997.34
2017-07-12T05:39:27.494Z,997.32
2017-07-12T05:40:27.474Z,997.32
2017-07-12T05:41:27.454Z,997.34
2017-07-12T05:42:27.433Z,997.29
2017-07-12T05:43:27.413Z,997.26
2017-07-12T05:44:27.392Z,997.3
2017-07-12T05:45:27.372Z,997.26
2017-07-12T05:46:27.351Z,997.31
2017-07-12T05:47:27.331Z,997.23
2017-07-12T05:48:27.310Z,997.21
2017-07-12T05:49:27.289Z,997.22
2017-07-12T05:50:27.273Z,997.2
2017-07-12T05:51:27.249Z,997.21
2017-07-12T05:52:27.229Z,997.19
2017-07-12T05:53:27.208Z,997.16
2017-07-12T05:54:27.188Z,997.19
2017-07-12T05:55:27.168Z,997.14
2017-07-12T05:56:27.148Z,997.15
2017-07-12T05:57:27.128Z,997.14
2017-07-12T05:58:27.109Z,997.13
2017-07-12T05:59:27.087Z,997.15
2017-07-12T06:00:27.068Z,997.15
2017-07-12T06:01:27.331Z,997.15
2017-07-12T06:02:27.027Z,997.15
2017-07-12T06:03:27.191Z,997.15
2017-07-12T06:04:26.987Z,997.17
2017-07-12T06:05:27.394Z,997.17
2017-07-12T06:06:26.946Z,997.13
2017-07-12T06:07:26.926Z,997.15
2017-07-12T06:08:26.907Z,997.11
2017-07-12T06:09:26.886Z,997.09
2017-07-12T06:10:26.866Z,997.09
2017-07-12T06:11:26.846Z,997.09
2017-07-12T06:12:26.827Z,997.04
2017-07-12T06:13:26.807Z,997.08
2017-07-12T06:14:26.881Z,997.07
2017-07-12T06:15:26.767Z,997.07
2017-07-12T06:16:26.747Z,997.04
2017-07-12T06:17:26.728Z,997.04
2017-07-12T06:18:26.831Z,997
2017-07-12T06:19:26.763Z,997.05
2017-07-12T06:20:26.671Z,997.08
2017-07-12T06:21:26.773Z,997.06
2017-07-12T06:22:26.632Z,997.06
2017-07-12T06:23:26.612Z,997.07
2017-07-12T06:24:26.674Z,997.08
2017-07-12T06:25:26.575Z,997.07
2017-07-12T06:26:26.555Z,997.07
2017-07-12T06:27:26.535Z,997.05
2017-07-12T06:28:26.517Z,997.07
2017-07-12T06:29:26.496Z,997.02
2017-07-12T06:30:26.477Z,997.06
2017-07-12T06:31:26.458Z,997.02
2017-07-12T06:32:26.439Z,997.06
2017-07-12T06:33:26.419Z,997.09
2017-07-12T06:34:26.401Z,997.05
2017-07-12T06:35:26.382Z,997.02
2017-07-12T06:36:26.364Z,997
2017-07-12T06:37:26.344Z,996.98
2017-07-12T06:38:26.346Z,996.98
2017-07-12T06:39:26.306Z,997.04
2017-07-12T06:40:26.717Z,997.02
2017-07-12T06:41:26.518Z,997
2017-07-12T06:42:26.373Z,997.03
2017-07-12T06:43:26.228Z,996.96
2017-07-12T06:44:26.208Z,996.93
2017-07-12T06:45:26.189Z,996.9
2017-07-12T06:46:26.451Z,996.89
2017-07-12T06:47:26.151Z,996.93
2017-07-12T06:48:26.131Z,996.92
2017-07-12T06:49:26.113Z,996.93
2017-07-12T06:50:26.093Z,996.88
2017-07-12T06:51:26.072Z,996.88
2017-07-12T06:52:26.053Z,996.83
2017-07-12T06:53:26.035Z,996.88
2017-07-12T06:54:26.015Z,996.82
2017-07-12T06:55:25.995Z,996.81
2017-07-12T06:56:25.976Z,996.79
2017-07-12T06:57:25.958Z,996.79
2017-07-12T06:58:25.938Z,996.84
2017-07-12T06:59:25.919Z,996.82
2017-07-12T07:00:25.899Z,996.77
2017-07-12T07:01:25.880Z,996.76
2017-07-12T07:02:25.933Z,996.74
2017-07-12T07:03:25.842Z,996.72
2017-07-12T07:04:26.072Z,996.71
2017-07-12T07:05:26.067Z,996.73
2017-07-12T07:06:25.783Z,996.67
2017-07-12T07:07:25.763Z,996.65
2017-07-12T07:08:25.744Z,996.65
2017-07-12T07:09:25.865Z,996.64
2017-07-12T07:10:25.705Z,996.63
2017-07-12T07:11:25.685Z,996.6
2017-07-12T07:12:25.869Z,996.61
2017-07-12T07:13:25.646Z,996.58
2017-07-12T07:14:25.627Z,996.61
2017-07-12T07:15:25.608Z,996.6
2017-07-12T07:16:25.588Z,996.54
2017-07-12T07:17:25.711Z,996.51
2017-07-12T07:18:25.549Z,996.51
2017-07-12T07:19:25.537Z,996.55
2017-07-12T07:20:25.515Z,996.51
2017-07-12T07:21:25.496Z,996.48
2017-07-12T07:22:25.472Z,996.5
2017-07-12T07:23:25.452Z,996.49
2017-07-12T07:24:25.432Z,996.43
2017-07-12T07:25:25.413Z,996.4
2017-07-12T07:26:25.394Z,996.37
2017-07-12T07:27:25.375Z,996.37
2017-07-12T07:28:25.356Z,996.34
2017-07-12T07:29:25.336Z,996.31
2017-07-12T07:30:25.317Z,996.31
2017-07-12T07:31:25.298Z,996.28
2017-07-12T07:32:25.280Z,996.28
2017-07-12T07:33:25.261Z,996.27
2017-07-12T07:34:25.242Z,996.3
2017-07-12T07:35:25.223Z,996.24
2017-07-12T07:36:25.313Z,996.22
2017-07-12T07:37:25.186Z,996.22
2017-07-12T07:38:25.166Z,996.2
2017-07-12T07:39:25.146Z,996.18
2017-07-12T07:40:25.238Z,996.18
2017-07-12T07:41:25.163Z,996.16
2017-07-12T07:42:25.090Z,996.13
2017-07-12T07:43:25.071Z,996.15
2017-07-12T07:44:25.052Z,996.1
2017-07-12T07:45:25.033Z,996.14
2017-07-12T07:46:25.014Z,996.17
2017-07-12T07:47:24.994Z,996.15
2017-07-12T07:48:24.976Z,996.17
2017-07-12T07:49:24.959Z,996.18
2017-07-12T07:50:24.939Z,996.17
2017-07-12T07:51:24.920Z,996.24
2017-07-12T07:52:24.902Z,996.16
2017-07-12T07:53:24.883Z,996.23
2017-07-12T07:54:24.864Z,996.13
2017-07-12T07:55:24.847Z,996.17
2017-07-12T07:56:24.827Z,996.18
2017-07-12T07:57:24.979Z,996.21
2017-07-12T07:58:24.817Z,996.23
2017-07-12T07:59:24.771Z,996.24
2017-07-12T08:00:24.784Z,996.24
2017-07-12T08:01:24.814Z,996.29
2017-07-12T08:02:24.745Z,996.27
2017-07-12T08:03:24.697Z,996.3
2017-07-12T08:04:24.676Z,996.34
2017-07-12T08:05:24.657Z,996.35
2017-07-12T08:06:24.637Z,996.37
2017-07-12T08:07:24.621Z,996.37
2017-07-12T08:08:24.598Z,996.33
2017-07-12T08:09:24.581Z,996.29
2017-07-12T08:10:24.563Z,996.28
2017-07-12T08:11:24.542Z,996.23
2017-07-12T08:12:24.940Z,996.23
2017-07-12T08:13:24.503Z,996.16
2017-07-12T08:14:24.691Z,996.18
2017-07-12T08:15:24.465Z,996.2
2017-07-12T08:16:24.447Z,996.19
2017-07-12T08:17:24.427Z,996.17
2017-07-12T08:18:24.409Z,996.15
2017-07-12T08:19:24.390Z,996.14
2017-07-12T08:20:24.495Z,996.2
2017-07-12T08:21:24.351Z,996.21
2017-07-12T08:22:24.424Z,996.19
2017-07-12T08:23:24.316Z,996.21
2017-07-12T08:24:24.297Z,996.2
2017-07-12T08:25:24.273Z,996.16
2017-07-12T08:26:24.258Z,996.16
2017-07-12T08:27:24.344Z,996.14
2017-07-12T08:28:24.215Z,996.12
2017-07-12T08:29:24.197Z,996.08
2017-07-12T08:30:24.176Z,996.11
2017-07-12T08:31:24.158Z,996.12
2017-07-12T08:32:24.139Z,996.13
2017-07-12T08:33:24.121Z,996.1
2017-07-12T08:34:24.103Z,996.07
2017-07-12T08:35:24.081Z,996.08
2017-07-12T08:36:24.063Z,996.03
2017-07-12T08:37:24.043Z,996.03
2017-07-12T08:38:24.029Z,995.96
2017-07-12T08:39:24.006Z,996.03
2017-07-12T08:40:23.996Z,995.91
2017-07-12T08:41:23.969Z,995.9
2017-07-12T08:42:23.950Z,995.85
2017-07-12T08:43:23.932Z,995.79
2017-07-12T08:44:23.913Z,995.74
2017-07-12T08:45:23.895Z,995.7
2017-07-12T08:46:23.876Z,995.67
2017-07-12T08:47:23.857Z,995.66
2017-07-12T08:48:23.837Z,995.6
2017-07-12T08:49:23.870Z,995.63
2017-07-12T08:50:23.802Z,995.62
2017-07-12T08:51:23.781Z,995.62
2017-07-12T08:52:23.761Z,995.6
2017-07-12T08:53:23.742Z,995.55
2017-07-12T08:54:23.725Z,995.55
2017-07-12T08:55:23.705Z,995.5
2017-07-12T08:56:23.739Z,995.5
2017-07-12T08:57:23.667Z,995.48
2017-07-12T08:58:23.666Z,995.48
2017-07-12T08:59:23.629Z,995.56
2017-07-12T09:00:23.609Z,995.58
2017-07-12T09:01:23.590Z,995.63
2017-07-12T09:02:23.573Z,995.65
2017-07-12T09:03:23.552Z,995.68
2017-07-12T09:04:23.534Z,995.65
2017-07-12T09:05:23.607Z,995.63
2017-07-12T09:06:23.669Z,995.63
2017-07-12T09:07:23.590Z,995.65
2017-07-12T09:08:23.621Z,995.64
2017-07-12T09:09:23.451Z,995.62
2017-07-12T09:10:23.423Z,995.6
2017-07-12T09:11:23.405Z,995.6
2017-07-12T09:12:23.386Z,995.61
2017-07-12T09:13:23.366Z,995.65
2017-07-12T09:14:23.347Z,995.68
2017-07-12T09:15:23.329Z,995.68
2017-07-12T09:16:23.311Z,995.68
2017-07-12T09:17:23.292Z,995.73
2017-07-12T09:18:23.274Z,995.71
2017-07-12T09:19:23.255Z,995.77
2017-07-12T09:20:23.238Z,995.74
2017-07-12T09:21:23.219Z,995.78
2017-07-12T09:22:23.201Z,995.77
2017-07-12T09:23:23.181Z,995.79
2017-07-12T09:33:22.994Z,995.87
2017-07-12T09:34:22.976Z,995.81
2017-07-12T09:35:22.958Z,995.79
2017-07-12T09:36:22.937Z,995.75
2017-07-12T09:37:22.918Z,995.75
2017-07-12T09:38:22.902Z,995.74
2017-07-12T09:39:22.879Z,995.71
2017-07-12T09:40:22.860Z,995.76
2017-07-12T09:41:22.842Z,995.76
2017-07-12T09:42:22.822Z,995.78
2017-07-12T09:43:22.801Z,995.82
2017-07-12T09:44:22.783Z,995.83
2017-07-12T09:45:22.766Z,995.83
2017-07-12T09:46:22.743Z,995.8
2017-07-12T09:47:22.724Z,995.8
2017-07-12T09:48:22.704Z,995.74
2017-07-12T09:49:22.684Z,995.77
2017-07-12T09:50:22.664Z,995.81
2017-07-12T09:51:22.643Z,995.78
2017-07-12T09:52:22.624Z,995.78
2017-07-12T09:53:22.605Z,995.75
2017-07-12T09:54:22.583Z,995.74
2017-07-12T09:55:22.564Z,995.71
2017-07-12T09:56:22.545Z,995.74
2017-07-12T09:57:22.525Z,995.75
2017-07-12T09:58:22.505Z,995.78
2017-07-12T09:59:22.486Z,995.8
2017-07-12T10:00:22.465Z,995.75
2017-07-12T10:01:22.445Z,995.71
2017-07-12T10:02:22.427Z,995.71
2017-07-12T10:03:22.407Z,995.65
2017-07-12T10:04:22.387Z,995.62
2017-07-12T10:05:22.367Z,995.63
2017-07-12T10:06:22.349Z,995.65
2017-07-12T10:07:22.329Z,995.63
2017-07-12T10:08:22.311Z,995.64
2017-07-12T10:09:22.290Z,995.6
2017-07-12T10:10:22.271Z,995.6
2017-07-12T10:11:22.612Z,995.61
2017-07-12T10:12:22.233Z,995.57
2017-07-12T10:13:22.216Z,995.59
2017-07-12T10:14:22.595Z,995.53
2017-07-12T10:15:22.176Z,995.55
2017-07-12T10:16:22.158Z,995.55
2017-07-12T10:17:22.160Z,995.54
2017-07-12T10:18:22.225Z,995.48
2017-07-12T10:19:22.101Z,995.53
2017-07-12T10:20:22.083Z,995.5
2017-07-12T10:21:22.063Z,995.47
2017-07-12T10:22:22.045Z,995.49
2017-07-12T10:23:22.026Z,995.53
2017-07-12T10:24:22.008Z,995.5
2017-07-12T10:25:21.991Z,995.51
2017-07-12T10:26:21.973Z,995.53
2017-07-12T10:27:21.952Z,995.53
2017-07-12T10:28:21.934Z,995.51
2017-07-12T10:29:21.917Z,995.52
2017-07-12T10:30:21.899Z,995.52
2017-07-12T10:31:21.878Z,995.48
2017-07-12T10:32:21.863Z,995.5
2017-07-12T10:33:21.841Z,995.52
2017-07-12T10:34:21.824Z,995.5
2017-07-12T10:35:21.803Z,995.5
2017-07-12T10:36:21.784Z,995.43
2017-07-12T10:37:21.767Z,995.38
2017-07-12T10:38:21.748Z,995.5
2017-07-12T10:39:21.729Z,995.48
2017-07-12T10:40:21.711Z,995.45
2017-07-12T10:41:21.692Z,995.42
2017-07-12T10:42:21.674Z,995.44
2017-07-12T10:43:21.655Z,995.42
2017-07-12T10:44:21.637Z,995.34
2017-07-12T10:45:21.617Z,995.44
2017-07-12T10:46:21.600Z,995.39
2017-07-12T10:47:21.582Z,995.41
2017-07-12T10:48:21.561Z,995.42
2017-07-12T10:49:21.541Z,995.45
2017-07-12T10:51:21.503Z,995.44
2017-07-12T10:52:21.485Z,995.37
2017-07-12T10:53:21.466Z,995.42
2017-07-12T10:54:21.448Z,995.45
2017-07-12T10:55:21.429Z,995.45
2017-07-12T10:56:21.409Z,995.42
2017-07-12T10:57:21.389Z,995.44
2017-07-12T10:58:21.371Z,995.44
2017-07-12T10:59:21.351Z,995.42
2017-07-12T11:00:21.332Z,995.38
2017-07-12T11:01:21.314Z,995.31
2017-07-12T11:02:21.294Z,995.37
2017-07-12T11:03:21.276Z,995.33
2017-07-12T11:04:21.257Z,995.29
2017-07-12T11:05:21.237Z,995.35
2017-07-12T11:06:21.219Z,995.29
2017-07-12T11:07:21.199Z,995.24
2017-07-12T11:08:21.180Z,995.26
2017-07-12T11:09:21.242Z,995.24
2017-07-12T11:10:21.257Z,995.25
2017-07-12T11:11:21.124Z,995.22
2017-07-12T11:12:21.105Z,995.15
2017-07-12T11:13:21.087Z,995.24
2017-07-12T11:14:21.067Z,995.18
2017-07-12T11:15:21.048Z,995.16
2017-07-12T11:16:21.030Z,995.15
2017-07-12T11:17:21.011Z,995.22
2017-07-12T11:18:20.992Z,995.17
2017-07-12T11:19:20.974Z,995.15
2017-07-12T11:20:20.956Z,995.13
2017-07-12T11:21:20.936Z,995.17
2017-07-12T11:22:20.918Z,995.2
2017-07-12T11:23:20.898Z,995.15
2017-07-12T11:24:20.879Z,995.13
2017-07-12T11:25:20.860Z,995.09
2017-07-12T11:26:20.842Z,995.08
2017-07-12T11:27:20.824Z,995.12
2017-07-12T11:28:20.805Z,995.04
2017-07-12T11:29:20.785Z,995.07
2017-07-12T11:30:20.767Z,995
2017-07-12T11:31:20.749Z,995.01
2017-07-12T11:32:20.731Z,995.01
2017-07-12T11:33:20.712Z,994.95
2017-07-12T11:34:20.693Z,994.97
2017-07-12T11:35:20.674Z,994.94
2017-07-12T11:36:20.655Z,994.91
2017-07-12T11:37:20.638Z,994.86
2017-07-12T11:38:20.619Z,994.83
2017-07-12T11:39:20.601Z,994.85
2017-07-12T11:40:20.583Z,994.82
2017-07-12T11:41:20.565Z,994.83
2017-07-12T11:42:20.547Z,994.8
2017-07-12T11:43:20.530Z,994.81
2017-07-12T11:44:20.518Z,994.81
2017-07-12T11:45:20.495Z,994.8
2017-07-12T11:46:20.479Z,994.8
2017-07-12T11:47:20.459Z,994.76
2017-07-12T11:48:20.440Z,994.75
2017-07-12T11:49:20.423Z,994.74
2017-07-12T11:50:20.405Z,994.67
2017-07-12T11:51:20.386Z,994.66
2017-07-12T11:52:20.369Z,994.66
2017-07-12T11:53:20.356Z,994.64
2017-07-12T11:54:20.384Z,994.6
2017-07-12T11:55:20.324Z,994.62
2017-07-12T11:56:20.298Z,994.51
2017-07-12T11:57:20.280Z,994.55
2017-07-12T11:58:20.262Z,994.49
2017-07-12T11:59:20.244Z,994.52
2017-07-12T12:00:20.227Z,994.53
2017-07-12T12:01:20.210Z,994.53
2017-07-12T12:02:20.190Z,994.51
2017-07-12T12:03:20.172Z,994.52
2017-07-12T12:04:20.155Z,994.56
2017-07-12T12:05:20.137Z,994.48
2017-07-12T12:06:20.122Z,994.52
2017-07-12T12:07:20.376Z,994.44
2017-07-12T12:08:20.310Z,994.48
2017-07-12T12:09:20.065Z,994.45
2017-07-12T12:10:20.047Z,994.49
2017-07-12T12:11:20.030Z,994.49
2017-07-12T12:12:20.011Z,994.43
2017-07-12T12:13:19.992Z,994.54
2017-07-12T12:14:19.974Z,994.47
2017-07-12T12:15:19.957Z,994.46
2017-07-12T12:16:19.939Z,994.5
2017-07-12T12:17:19.920Z,994.44
2017-07-12T12:18:19.902Z,994.4
2017-07-12T12:19:19.884Z,994.44
2017-07-12T12:20:19.865Z,994.43
2017-07-12T12:21:19.847Z,994.41
2017-07-12T12:22:19.828Z,994.46
2017-07-12T12:23:19.809Z,994.45
2017-07-12T12:24:19.790Z,994.5
2017-07-12T12:25:19.772Z,994.52
2017-07-12T12:26:19.754Z,994.51
2017-07-12T12:27:19.734Z,994.54
2017-07-12T12:28:19.716Z,994.44
2017-07-12T12:29:19.697Z,994.56
2017-07-12T12:30:19.678Z,994.48
2017-07-12T12:31:19.659Z,994.49
2017-07-12T12:32:19.641Z,994.56
2017-07-12T12:33:19.622Z,994.54
2017-07-12T12:34:19.603Z,994.65
2017-07-12T12:35:19.583Z,994.76
2017-07-12T12:36:19.564Z,994.96
2017-07-12T12:37:19.545Z,995.39
2017-07-12T12:38:19.525Z,995.52
2017-07-12T12:39:19.509Z,996.09
2017-07-12T12:40:19.488Z,996.06